createdAt,value
2019-05-29T04:19:01.450Z,12.90
2019-05-29T04:21:34.195Z,11.60
2019-05-29T04:24:07.531Z,11.25
2019-05-29T04:26:40.738Z,11.00
2019-05-29T04:29:12.979Z,10.08
2019-05-29T04:31:45.144Z,10.30
2019-05-29T04:34:17.364Z,9.90
2019-05-29T04:36:49.570Z,10.50
2019-05-29T04:39:21.667Z,10.00
2019-05-29T04:41:53.873Z,9.53
2019-05-29T04:44:26.226Z,9.45
2019-05-29T04:47:10.569Z,10.05
2019-05-29T04:49:33.812Z,9.58
2019-05-29T04:52:06.068Z,9.43
2019-05-29T04:54:40.034Z,9.35
2019-05-29T04:57:12.180Z,9.05
2019-05-29T04:59:44.322Z,9.78
2019-05-29T05:02:16.570Z,8.55
2019-05-29T05:04:48.779Z,8.58
2019-05-29T05:07:20.982Z,8.20
2019-05-29T05:09:53.173Z,9.68
2019-05-29T05:12:25.365Z,8.85
2019-05-29T05:14:57.652Z,8.70
2019-05-29T05:17:31.728Z,8.73
2019-05-29T05:20:05.032Z,8.30
2019-05-29T05:22:38.202Z,8.20
2019-05-29T05:25:10.792Z,9.23
2019-05-29T05:27:42.976Z,8.73
2019-05-29T05:30:16.154Z,7.47
2019-05-29T05:32:48.426Z,6.83
2019-05-29T05:35:20.628Z,7.10
2019-05-29T05:37:52.813Z,6.15
2019-05-29T05:40:25.193Z,4.65
2019-05-29T05:42:57.287Z,5.08
2019-05-29T05:45:35.101Z,4.62
2019-05-29T05:48:17.195Z,4.25
2019-05-29T05:50:49.308Z,4.05
2019-05-29T05:53:21.543Z,3.50
2019-05-29T05:55:53.799Z,4.05
2019-05-29T05:58:26.012Z,3.65
2019-05-29T06:00:58.222Z,3.92
2019-05-29T06:03:30.283Z,3.47
2019-05-29T06:06:03.554Z,3.30
2019-05-29T06:08:36.149Z,3.30
2019-05-29T06:11:08.345Z,4.20
2019-05-29T06:13:40.703Z,3.25
2019-05-29T06:16:12.863Z,3.40
2019-05-29T06:18:45.029Z,3.52
2019-05-29T06:21:17.069Z,3.50
2019-05-29T06:23:49.255Z,3.40
2019-05-29T06:26:21.379Z,3.52
2019-05-29T06:28:53.394Z,3.30
2019-05-29T06:31:27.259Z,3.80
2019-05-29T06:33:59.547Z,3.47
2019-05-29T06:36:31.730Z,2.87
2019-05-29T06:39:03.704Z,3.30
2019-05-29T06:41:35.754Z,3.10
2019-05-29T06:44:07.782Z,3.02
2019-05-29T06:46:40.538Z,2.42
2019-05-29T06:49:12.794Z,2.75
2019-05-29T06:51:44.811Z,2.92
2019-05-29T06:54:16.897Z,3.10
2019-05-29T06:56:48.916Z,3.12
2019-05-29T06:59:20.951Z,3.50
2019-05-29T07:01:53.469Z,3.40
2019-05-29T07:04:25.688Z,4.03
2019-05-29T07:06:57.814Z,3.83
2019-05-29T07:09:30.052Z,3.77
2019-05-29T07:12:04.246Z,3.33
2019-05-29T07:14:36.414Z,3.42
2019-05-29T07:17:08.509Z,3.70
2019-05-29T07:19:53.949Z,3.33
2019-05-29T07:22:14.471Z,3.45
2019-05-29T07:24:47.013Z,3.92
2019-05-29T07:27:19.313Z,3.35
2019-05-29T07:29:51.320Z,3.98
2019-05-29T07:32:23.506Z,3.85
2019-05-29T07:35:03.049Z,4.20
2019-05-29T07:37:29.294Z,3.87
2019-05-29T07:40:01.280Z,4.22
2019-05-29T07:42:33.402Z,3.87
2019-05-29T07:45:07.706Z,5.53
2019-05-29T07:47:40.401Z,4.85
2019-05-29T07:50:28.446Z,4.55
2019-05-29T07:53:00.581Z,3.77
2019-05-29T07:55:32.629Z,4.35
2019-05-29T07:58:04.890Z,3.72
2019-05-29T08:00:56.332Z,3.08
2019-05-29T08:03:10.659Z,3.40
2019-05-29T08:05:46.157Z,3.33
2019-05-29T08:08:16.741Z,3.37
2019-05-29T08:10:49.726Z,3.35
2019-05-29T08:13:21.759Z,3.40
2019-05-29T08:16:02.379Z,3.15
2019-05-29T08:18:27.563Z,3.30
2019-05-29T08:21:36.896Z,3.20
2019-05-29T08:23:51.377Z,3.33
2019-05-29T08:26:26.570Z,3.12
2019-05-29T08:28:58.761Z,2.70
2019-05-29T08:31:30.982Z,2.92
2019-05-29T08:34:03.079Z,3.12
2019-05-29T08:36:35.363Z,2.90
2019-05-29T08:39:08.392Z,2.83
2019-05-29T08:41:40.444Z,2.70
2019-05-29T08:44:12.562Z,3.12
2019-05-29T08:47:01.498Z,3.20
2019-05-29T08:49:18.553Z,3.90
2019-05-29T08:51:52.320Z,3.30
2019-05-29T08:54:28.290Z,3.08
2019-05-29T08:57:00.444Z,4.58
2019-05-29T08:59:34.791Z,2.85
2019-05-29T09:02:08.394Z,2.83
2019-05-29T09:04:40.477Z,2.60
2019-05-29T09:07:17.079Z,2.90
2019-05-29T09:09:51.280Z,3.12
2019-05-29T09:12:23.872Z,3.67
2019-05-29T09:14:57.425Z,3.95
2019-05-29T09:17:29.793Z,3.85
2019-05-29T09:20:02.039Z,2.90
2019-05-29T09:22:34.074Z,3.17
2019-05-29T09:25:06.358Z,3.27
2019-05-29T09:27:38.378Z,3.10
2019-05-29T09:30:10.348Z,3.10
2019-05-29T09:32:50.366Z,3.02
2019-05-29T09:35:18.410Z,3.52
2019-05-29T09:37:49.909Z,3.02
2019-05-29T09:40:23.109Z,3.20
2019-05-29T09:42:55.280Z,2.90
2019-05-29T09:45:27.259Z,3.33
2019-05-29T09:47:59.437Z,3.90
2019-05-29T09:50:48.869Z,2.83
2019-05-29T09:53:05.157Z,3.55
2019-05-29T09:55:38.874Z,3.30
2019-05-29T09:58:34.403Z,3.27
2019-05-29T10:01:22.928Z,3.08
2019-05-29T10:03:58.979Z,2.85
2019-05-29T10:06:29.653Z,2.80
2019-05-29T10:09:01.928Z,2.90
2019-05-29T10:22:18.884Z,2.92
2019-05-29T10:25:01.965Z,3.30
2019-05-29T11:06:25.490Z,2.95
2019-05-29T11:08:57.624Z,3.30
2019-05-29T11:11:29.561Z,3.30
2019-05-29T11:14:04.194Z,3.42
2019-05-29T11:16:39.744Z,4.00
2019-05-29T11:22:41.350Z,3.35
2019-05-29T11:33:12.238Z,3.70
2019-05-29T11:58:37.754Z,3.25
2019-05-29T12:22:08.347Z,3.50
2019-05-29T12:24:42.567Z,2.42
2019-05-29T12:27:14.711Z,3.47
2019-05-29T12:29:46.846Z,3.20
2019-05-29T12:32:18.955Z,3.12
2019-05-29T12:34:54.114Z,3.35
2019-05-29T12:37:29.850Z,3.00
2019-05-29T12:40:13.204Z,3.10
2019-05-29T12:42:46.418Z,3.62
2019-05-29T12:45:18.420Z,4.55
2019-05-29T12:47:50.443Z,4.70
2019-05-29T12:50:29.170Z,3.75
2019-05-29T12:53:01.807Z,3.17
2019-05-29T12:55:34.234Z,3.37
2019-05-29T12:58:06.309Z,3.50
2019-05-29T13:00:38.425Z,3.10
2019-05-29T13:03:10.469Z,3.08
2019-05-29T13:05:42.578Z,2.87
2019-05-29T13:08:14.689Z,2.80
2019-05-29T13:10:56.196Z,2.87
2019-05-29T13:13:30.773Z,3.55
2019-05-29T13:16:05.042Z,2.90
2019-05-29T13:18:37.510Z,3.10
2019-05-29T13:21:09.592Z,3.67
2019-05-29T13:23:45.250Z,3.08
2019-05-29T13:26:15.826Z,3.65
2019-05-29T13:28:47.827Z,3.05
2019-05-29T13:34:20.708Z,3.33
2019-05-29T13:40:10.831Z,2.55
2019-05-29T13:43:18.949Z,2.75
2019-05-29T14:43:13.680Z,3.45
2019-05-29T14:45:44.121Z,3.77
2019-05-29T14:48:16.238Z,3.65
2019-05-29T14:50:48.389Z,3.40
2019-05-29T14:53:20.420Z,3.02
2019-05-29T14:55:52.502Z,2.60
2019-05-29T15:11:51.899Z,3.08
2019-05-29T15:14:23.956Z,3.50
2019-05-29T15:17:05.054Z,4.20
2019-05-29T15:19:37.384Z,4.80
2019-05-29T15:25:18.309Z,5.28
2019-05-29T15:27:42.562Z,4.58
2019-05-29T15:30:20.807Z,4.83
2019-05-29T15:32:48.945Z,4.30
2019-05-29T15:35:23.695Z,5.10
2019-05-29T15:37:56.122Z,5.08
2019-05-29T15:40:28.499Z,4.70
2019-05-29T15:43:06.803Z,4.05
2019-05-29T15:45:41.578Z,4.28
2019-05-29T15:48:18.143Z,3.98
2019-05-29T15:50:51.478Z,4.33
2019-05-29T15:53:23.741Z,4.25
2019-05-29T15:55:57.881Z,4.65
2019-05-29T15:58:35.896Z,3.80
2019-05-29T16:01:09.623Z,4.00
2019-05-29T16:03:41.918Z,5.10
2019-05-29T16:06:14.091Z,4.42
2019-05-29T16:08:46.159Z,5.60
2019-05-29T16:11:18.842Z,5.08
2019-05-29T16:13:51.060Z,6.25
2019-05-29T16:16:23.187Z,6.83
2019-05-29T16:18:55.359Z,5.60
2019-05-29T16:21:27.582Z,6.22
2019-05-29T16:23:59.705Z,6.25
2019-05-29T16:26:31.935Z,5.42
2019-05-29T16:29:04.046Z,6.95
2019-05-29T16:31:36.251Z,6.33
2019-05-29T16:34:08.684Z,5.60
2019-05-29T16:36:40.873Z,6.42
2019-05-29T16:39:13.529Z,7.10
2019-05-29T16:41:45.760Z,7.35
2019-05-29T16:44:18.277Z,5.92
2019-05-29T16:46:51.538Z,6.83
2019-05-29T16:49:23.707Z,5.15
2019-05-29T16:51:55.904Z,4.42
2019-05-29T16:54:32.808Z,4.53
2019-05-29T16:57:05.786Z,4.08
2019-05-29T17:06:53.530Z,4.08
2019-05-29T17:09:30.160Z,3.62
2019-05-29T17:12:23.059Z,3.37
2019-05-29T17:15:00.176Z,4.47
2019-05-29T17:17:44.289Z,3.83
2019-05-29T17:20:46.362Z,4.03
2019-05-29T17:26:18.920Z,3.98
2019-05-29T17:28:51.180Z,4.50
2019-05-29T17:38:37.822Z,22.42
2019-05-29T17:41:26.142Z,8.83
2019-05-29T17:44:05.224Z,7.40
2019-05-29T17:46:40.740Z,6.45
2019-05-29T17:49:13.326Z,5.67
2019-05-29T17:51:45.612Z,5.40
2019-05-29T17:54:17.968Z,5.78
2019-05-29T17:56:50.246Z,6.35
2019-05-29T17:59:22.545Z,8.30
2019-05-29T18:01:54.862Z,8.10
2019-05-29T18:04:27.067Z,9.38
2019-05-29T18:06:59.287Z,9.25
2019-05-29T18:09:31.858Z,10.15
2019-05-29T18:12:04.071Z,10.43
2019-05-29T18:14:36.323Z,10.45
2019-05-29T18:17:08.599Z,10.05
2019-05-29T18:19:40.809Z,10.08
2019-05-29T18:22:12.954Z,10.18
2019-05-29T18:24:45.183Z,9.85
2019-05-29T18:27:17.935Z,8.30
2019-05-29T18:29:51.686Z,9.63
2019-05-29T18:32:24.491Z,7.65
2019-05-29T19:28:34.918Z,21.42
2019-05-29T19:31:08.648Z,20.55
2019-05-29T19:33:43.685Z,19.57
2019-05-29T19:36:15.912Z,15.00
2019-05-29T19:38:48.090Z,15.53
2019-05-29T19:41:20.383Z,11.28
2019-05-29T19:43:52.609Z,13.18
2019-05-29T19:46:28.549Z,9.63
2019-05-29T19:49:00.963Z,6.47
2019-05-29T19:51:33.526Z,5.80
2019-05-29T19:54:06.728Z,7.92
2019-05-29T19:56:43.560Z,5.40
2019-05-29T19:59:15.748Z,4.65
2019-05-29T20:01:48.245Z,4.65
2019-05-29T20:04:23.400Z,4.50
2019-05-29T20:06:55.478Z,4.75
2019-05-29T20:09:27.663Z,5.12
2019-05-29T20:12:01.329Z,4.83
2019-05-29T20:14:35.792Z,4.30
2019-05-29T20:17:08.035Z,4.70
2019-05-29T20:19:41.024Z,5.08
2019-05-29T20:22:13.208Z,5.03
2019-05-29T20:24:45.264Z,4.95
2019-05-29T20:27:17.255Z,5.10
2019-05-29T20:29:49.391Z,5.67
2019-05-29T20:32:21.385Z,5.90
2019-05-29T20:34:53.514Z,6.08
2019-05-29T20:37:25.582Z,5.72
2019-05-29T20:39:58.873Z,6.60
2019-05-29T20:42:32.110Z,5.40
2019-05-29T20:45:06.744Z,5.70
2019-05-29T20:47:40.111Z,5.90
2019-05-29T20:50:12.444Z,5.40
2019-05-29T20:52:44.509Z,5.00
2019-05-29T20:55:16.509Z,5.22
2019-05-29T20:57:48.717Z,4.75
2019-05-29T21:00:20.844Z,5.00
2019-05-29T21:02:52.937Z,4.92
2019-05-29T21:05:25.006Z,4.28
2019-05-29T21:07:57.197Z,5.25
2019-05-29T21:10:29.177Z,4.55
2019-05-29T21:13:01.264Z,5.03
2019-05-29T21:15:33.598Z,5.30
2019-05-29T21:18:05.875Z,4.67
2019-05-29T21:20:38.326Z,4.97
2019-05-29T21:23:10.549Z,4.85
2019-05-29T21:25:42.904Z,5.30
2019-05-29T21:28:15.124Z,5.03
2019-05-29T21:30:47.129Z,5.60
2019-05-29T21:33:19.191Z,5.65
2019-05-29T21:35:51.197Z,5.50
2019-05-29T21:38:23.147Z,5.85
2019-05-29T21:40:56.087Z,4.87
2019-05-29T21:43:28.151Z,4.50
2019-05-29T21:46:00.129Z,4.70
2019-05-29T21:48:32.359Z,4.80
2019-05-29T21:51:04.458Z,4.83
2019-05-29T21:53:37.258Z,4.33
2019-05-29T21:56:09.399Z,4.85
2019-05-29T21:58:58.998Z,4.87
2019-05-29T22:01:15.526Z,5.50
2019-05-29T22:03:48.828Z,5.28
2019-05-29T22:06:22.232Z,5.47
2019-05-29T22:08:54.216Z,5.83
2019-05-29T22:11:26.339Z,5.65
2019-05-29T22:13:58.601Z,5.75
2019-05-29T22:16:30.772Z,5.72
2019-05-29T22:19:04.296Z,6.15
2019-05-29T22:21:36.550Z,6.53
2019-05-29T22:24:08.693Z,6.20
2019-05-29T22:26:40.745Z,6.30
2019-05-29T22:29:18.203Z,6.45
2019-05-29T22:31:46.593Z,6.35
2019-05-29T22:34:18.818Z,6.87
2019-05-29T22:36:51.426Z,7.12
2019-05-29T22:39:23.766Z,7.12
2019-05-29T22:41:57.592Z,7.17
2019-05-29T22:44:29.982Z,7.67
2019-05-29T22:47:02.130Z,8.00
2019-05-29T22:49:35.292Z,7.15
2019-05-29T22:52:07.579Z,7.55
2019-05-29T22:54:39.894Z,7.58
2019-05-29T22:57:12.167Z,7.30
2019-05-29T22:59:44.151Z,7.53
2019-05-29T23:02:16.239Z,8.50
2019-05-29T23:04:48.475Z,7.58
2019-05-29T23:07:20.699Z,7.72
2019-05-29T23:09:54.232Z,7.67
2019-05-29T23:12:26.652Z,9.00
2019-05-29T23:15:00.641Z,8.60
2019-05-29T23:17:34.068Z,8.65
2019-05-29T23:20:09.244Z,9.40
2019-05-29T23:22:41.640Z,8.75
2019-05-29T23:25:13.896Z,8.88
2019-05-29T23:27:46.082Z,9.28
2019-05-29T23:30:18.254Z,10.15
2019-05-29T23:32:50.801Z,9.85
2019-05-29T23:35:23.048Z,9.00
2019-05-29T23:37:55.251Z,9.23
2019-05-29T23:40:27.475Z,10.10
2019-05-29T23:42:59.647Z,10.10
2019-05-29T23:45:31.927Z,9.58
2019-05-29T23:48:04.081Z,10.40
2019-05-29T23:50:37.307Z,9.63
2019-05-29T23:53:09.888Z,9.78
2019-05-29T23:55:42.179Z,10.50
2019-05-29T23:58:14.324Z,10.38
